AFR52VY LFPG-LPPR
Flight info
| Callsign | AFR52VY |
|---|---|
| Flight time | 1h 52m |
| Altitude | 35000 |
| Route | LGL UT176 TERPO UN872 ERIGA UZ218 FUJTI DCT ATLEN DCT INSID/N0360F230 T326 ASPOR |
| Aircraft | A20N/M-SDE2E3FGHIRWXY/LB1 |
Departure
| Time | 2026-05-08 07:29 |
|---|---|
| Airport | Charles de Gaulle International Airport (LFPG) |
Arrival
| Time | 2026-05-08 09:21 |
|---|---|
| Airport | Francisco de Sá Carneiro Airport (LPPR) |
| Time | Latitude | Longitude | Altitude | Speed | Heading |
|---|---|---|---|---|---|
| 2026-05-08 06:47 | 49.00685 | 2.58015 | 0 ft | 0 kts | 254° |
| 2026-05-08 07:13 | 49.00691 | 2.58048 | 324 ft | 4 kts | 258° |
| 2026-05-08 07:14 | 49.00695 | 2.58088 | 359 ft | 4 kts | 270° |
| 2026-05-08 07:14 | 49.00690 | 2.58126 | 359 ft | 4 kts | 315° |
| 2026-05-08 07:14 | 49.00679 | 2.58136 | 355 ft | 1 kts | 355° |
| 2026-05-08 07:14 | 49.00677 | 2.58136 | 356 ft | 0 kts | 355° |
| 2026-05-08 07:19 | 49.00678 | 2.58135 | 356 ft | 0 kts | 301° |
| 2026-05-08 07:19 | 49.00685 | 2.58116 | 357 ft | 6 kts | 301° |
| 2026-05-08 07:19 | 49.00766 | 2.58080 | 360 ft | 13 kts | 6° |
| 2026-05-08 07:19 | 49.00837 | 2.58110 | 355 ft | 15 kts | 20° |
| 2026-05-08 07:20 | 49.00898 | 2.57950 | 355 ft | 21 kts | 264° |
| 2026-05-08 07:20 | 49.00887 | 2.57780 | 357 ft | 27 kts | 264° |
| 2026-05-08 07:20 | 49.00866 | 2.57493 | 363 ft | 26 kts | 263° |
| 2026-05-08 07:20 | 49.00858 | 2.57323 | 355 ft | 13 kts | 268° |
| 2026-05-08 07:21 | 49.00854 | 2.57183 | 361 ft | 14 kts | 267° |
| 2026-05-08 07:21 | 49.00849 | 2.57019 | 357 ft | 15 kts | 266° |
| 2026-05-08 07:21 | 49.00847 | 2.56968 | 358 ft | 15 kts | 266° |
| 2026-05-08 07:21 | 49.00831 | 2.56702 | 355 ft | 14 kts | 264° |
| 2026-05-08 07:22 | 49.00820 | 2.56547 | 355 ft | 16 kts | 264° |
| 2026-05-08 07:22 | 49.00807 | 2.56370 | 361 ft | 18 kts | 264° |
| 2026-05-08 07:22 | 49.00793 | 2.56172 | 363 ft | 20 kts | 263° |
| 2026-05-08 07:22 | 49.00776 | 2.55955 | 355 ft | 22 kts | 263° |
| 2026-05-08 07:23 | 49.00741 | 2.55740 | 361 ft | 21 kts | 251° |
| 2026-05-08 07:23 | 49.00738 | 2.55586 | 356 ft | 11 kts | 266° |
| 2026-05-08 07:23 | 49.00730 | 2.55456 | 360 ft | 13 kts | 255° |
| 2026-05-08 07:23 | 49.00698 | 2.55312 | 357 ft | 16 kts | 251° |
| 2026-05-08 07:24 | 49.00633 | 2.55248 | 361 ft | 11 kts | 171° |
| 2026-05-08 07:24 | 49.00551 | 2.55286 | 358 ft | 14 kts | 161° |
| 2026-05-08 07:24 | 49.00450 | 2.55337 | 355 ft | 16 kts | 165° |
| 2026-05-08 07:24 | 49.00334 | 2.55380 | 354 ft | 18 kts | 166° |
| 2026-05-08 07:25 | 49.00207 | 2.55429 | 361 ft | 17 kts | 162° |
| 2026-05-08 07:25 | 49.00088 | 2.55487 | 358 ft | 19 kts | 162° |
| 2026-05-08 07:25 | 48.99879 | 2.55614 | 359 ft | 17 kts | 135° |
| 2026-05-08 07:26 | 48.99842 | 2.55714 | 359 ft | 9 kts | 115° |
| 2026-05-08 07:26 | 48.99821 | 2.55771 | 356 ft | 10 kts | 130° |
| 2026-05-08 07:26 | 48.99749 | 2.55802 | 357 ft | 12 kts | 191° |
| 2026-05-08 07:26 | 48.99710 | 2.55788 | 357 ft | 0 kts | 179° |
| 2026-05-08 07:27 | 48.99648 | 2.55819 | 355 ft | 17 kts | 150° |
| 2026-05-08 07:27 | 48.99638 | 2.55829 | 362 ft | 0 kts | 146° |
| 2026-05-08 07:28 | 48.99627 | 2.55841 | 356 ft | 2 kts | 140° |
| 2026-05-08 07:28 | 48.99602 | 2.55987 | 353 ft | 43 kts | 85° |
| 2026-05-08 07:28 | 48.99656 | 2.56837 | 361 ft | 119 kts | 86° |
| 2026-05-08 07:28 | 48.99753 | 2.58425 | 355 ft | 178 kts | 86° |
| 2026-05-08 07:29 | 48.99799 | 2.60461 | 835 ft | 193 kts | 87° |
| 2026-05-08 07:29 | 48.99885 | 2.62431 | 2047 ft | 180 kts | 84° |
| 2026-05-08 07:29 | 48.99998 | 2.64323 | 2772 ft | 172 kts | 84° |
| 2026-05-08 07:29 | 49.00113 | 2.66139 | 2850 ft | 177 kts | 84° |
| 2026-05-08 07:30 | 49.00236 | 2.68111 | 2971 ft | 201 kts | 84° |
| 2026-05-08 07:30 | 49.00372 | 2.70379 | 3391 ft | 226 kts | 84° |
| 2026-05-08 07:30 | 49.00512 | 2.72872 | 3935 ft | 247 kts | 85° |
| 2026-05-08 07:30 | 49.00651 | 2.75573 | 4563 ft | 263 kts | 85° |
| 2026-05-08 07:31 | 49.00768 | 2.78373 | 5480 ft | 266 kts | 91° |
| 2026-05-08 07:31 | 49.00516 | 2.81179 | 6434 ft | 269 kts | 98° |
| 2026-05-08 07:31 | 49.00196 | 2.83994 | 7357 ft | 272 kts | 99° |
| 2026-05-08 07:31 | 48.99871 | 2.86815 | 8256 ft | 275 kts | 99° |
| 2026-05-08 07:32 | 48.99540 | 2.89695 | 9142 ft | 278 kts | 99° |
| 2026-05-08 07:32 | 48.99207 | 2.92627 | 9758 ft | 283 kts | 99° |
| 2026-05-08 07:32 | 48.98871 | 2.95583 | 9988 ft | 284 kts | 100° |
| 2026-05-08 07:32 | 48.98350 | 2.98465 | 10076 ft | 284 kts | 117° |
| 2026-05-08 07:33 | 48.97113 | 3.00828 | 10074 ft | 305 kts | 141° |
| 2026-05-08 07:33 | 48.95127 | 3.02382 | 10076 ft | 328 kts | 165° |
| 2026-05-08 07:33 | 48.92973 | 3.02660 | 10083 ft | 322 kts | 187° |
| 2026-05-08 07:33 | 48.90932 | 3.01669 | 10071 ft | 306 kts | 210° |
| 2026-05-08 07:34 | 48.89328 | 2.99477 | 10077 ft | 325 kts | 234° |
| 2026-05-08 07:34 | 48.88363 | 2.96329 | 10072 ft | 331 kts | 257° |
| 2026-05-08 07:34 | 48.88154 | 2.93044 | 10070 ft | 317 kts | 269° |
| 2026-05-08 07:34 | 48.88116 | 2.89786 | 10068 ft | 301 kts | 267° |
| 2026-05-08 07:35 | 48.87957 | 2.86706 | 10069 ft | 285 kts | 263° |
| 2026-05-08 07:35 | 48.87654 | 2.83775 | 10072 ft | 284 kts | 259° |
| 2026-05-08 07:35 | 48.87216 | 2.80671 | 10096 ft | 317 kts | 257° |
| 2026-05-08 07:35 | 48.86680 | 2.77384 | 10549 ft | 332 kts | 256° |
| 2026-05-08 07:36 | 48.86098 | 2.73990 | 11442 ft | 332 kts | 256° |
| 2026-05-08 07:36 | 48.85508 | 2.70592 | 12276 ft | 336 kts | 256° |
| 2026-05-08 07:36 | 48.84908 | 2.67134 | 13028 ft | 340 kts | 256° |
| 2026-05-08 07:36 | 48.84305 | 2.63644 | 13779 ft | 344 kts | 256° |
| 2026-05-08 07:37 | 48.83695 | 2.60116 | 14513 ft | 348 kts | 256° |
| 2026-05-08 07:37 | 48.83079 | 2.56549 | 15228 ft | 351 kts | 256° |
| 2026-05-08 07:37 | 48.82491 | 2.53153 | 15879 ft | 355 kts | 256° |
| 2026-05-08 07:37 | 48.81839 | 2.49392 | 16584 ft | 359 kts | 256° |
| 2026-05-08 07:38 | 48.81191 | 2.45663 | 17252 ft | 362 kts | 256° |
| 2026-05-08 07:38 | 48.80556 | 2.41953 | 17886 ft | 366 kts | 257° |
| 2026-05-08 07:38 | 48.80162 | 2.38121 | 18508 ft | 369 kts | 265° |
| 2026-05-08 07:38 | 48.80102 | 2.34211 | 19102 ft | 373 kts | 270° |
| 2026-05-08 07:39 | 48.80122 | 2.30331 | 19729 ft | 375 kts | 270° |
| 2026-05-08 07:39 | 48.80133 | 2.26440 | 20316 ft | 378 kts | 270° |
| 2026-05-08 07:39 | 48.80140 | 2.22436 | 20873 ft | 381 kts | 270° |
| 2026-05-08 07:39 | 48.80143 | 2.18400 | 21462 ft | 384 kts | 270° |
| 2026-05-08 07:40 | 48.80145 | 2.14346 | 22030 ft | 386 kts | 270° |
| 2026-05-08 07:40 | 48.80145 | 2.10251 | 22553 ft | 390 kts | 270° |
| 2026-05-08 07:40 | 48.80144 | 2.06137 | 23087 ft | 392 kts | 270° |
| 2026-05-08 07:40 | 48.80141 | 2.01983 | 23593 ft | 395 kts | 270° |
| 2026-05-08 07:41 | 48.80137 | 1.97798 | 24101 ft | 398 kts | 270° |
| 2026-05-08 07:41 | 48.80132 | 1.93587 | 24591 ft | 401 kts | 270° |
| 2026-05-08 07:41 | 48.80124 | 1.89345 | 25049 ft | 404 kts | 270° |
| 2026-05-08 07:41 | 48.80115 | 1.85077 | 25513 ft | 406 kts | 270° |
| 2026-05-08 07:42 | 48.80105 | 1.80785 | 25934 ft | 409 kts | 270° |
| 2026-05-08 07:42 | 48.80092 | 1.76449 | 26344 ft | 412 kts | 270° |
| 2026-05-08 07:42 | 48.80078 | 1.72088 | 26732 ft | 415 kts | 270° |
| 2026-05-08 07:42 | 48.80062 | 1.67691 | 27133 ft | 418 kts | 270° |
| 2026-05-08 07:43 | 48.80045 | 1.63266 | 27504 ft | 421 kts | 270° |
| 2026-05-08 07:43 | 48.80025 | 1.58812 | 27852 ft | 424 kts | 270° |
| 2026-05-08 07:43 | 48.80004 | 1.54339 | 28216 ft | 426 kts | 270° |
| 2026-05-08 07:43 | 48.79981 | 1.49820 | 28548 ft | 429 kts | 270° |
| 2026-05-08 07:44 | 48.79956 | 1.45354 | 28868 ft | 431 kts | 270° |
| 2026-05-08 07:44 | 48.79930 | 1.40799 | 29181 ft | 433 kts | 270° |
| 2026-05-08 07:44 | 48.79901 | 1.36219 | 29490 ft | 435 kts | 270° |
| 2026-05-08 07:44 | 48.79870 | 1.31617 | 29795 ft | 437 kts | 270° |
| 2026-05-08 07:45 | 48.79837 | 1.26988 | 30080 ft | 440 kts | 270° |
| 2026-05-08 07:45 | 48.79803 | 1.22343 | 30388 ft | 442 kts | 270° |
| 2026-05-08 07:45 | 48.79766 | 1.17672 | 30672 ft | 444 kts | 270° |
| 2026-05-08 07:45 | 48.79727 | 1.12979 | 30962 ft | 446 kts | 270° |
| 2026-05-08 07:46 | 48.79687 | 1.08253 | 31213 ft | 449 kts | 269° |
| 2026-05-08 07:46 | 48.79644 | 1.03510 | 31528 ft | 450 kts | 269° |
| 2026-05-08 07:46 | 48.79599 | 0.98767 | 31920 ft | 449 kts | 269° |
| 2026-05-08 07:46 | 48.79551 | 0.94038 | 32296 ft | 448 kts | 269° |
| 2026-05-08 07:47 | 48.79502 | 0.89317 | 32654 ft | 447 kts | 269° |
| 2026-05-08 07:47 | 48.79451 | 0.84604 | 32998 ft | 447 kts | 269° |
| 2026-05-08 07:47 | 48.79399 | 0.79907 | 33354 ft | 445 kts | 269° |
| 2026-05-08 07:47 | 48.79345 | 0.75213 | 33695 ft | 444 kts | 269° |
| 2026-05-08 07:48 | 48.79289 | 0.70530 | 33995 ft | 444 kts | 269° |
| 2026-05-08 07:48 | 48.79231 | 0.65859 | 34293 ft | 443 kts | 269° |
| 2026-05-08 07:48 | 48.79157 | 0.61192 | 34600 ft | 442 kts | 266° |
| 2026-05-08 07:48 | 48.78708 | 0.56655 | 34880 ft | 442 kts | 256° |
| 2026-05-08 07:49 | 48.77723 | 0.52244 | 35042 ft | 443 kts | 246° |
| 2026-05-08 07:49 | 48.74333 | 0.44576 | 35075 ft | 443 kts | 230° |
| 2026-05-08 07:50 | 48.70327 | 0.37495 | 35075 ft | 443 kts | 231° |
| 2026-05-08 07:50 | 48.66335 | 0.30407 | 35071 ft | 442 kts | 231° |
| 2026-05-08 07:51 | 48.62339 | 0.23334 | 35028 ft | 441 kts | 231° |
| 2026-05-08 07:51 | 48.58368 | 0.16328 | 35010 ft | 437 kts | 231° |
| 2026-05-08 07:52 | 48.54484 | 0.09444 | 35019 ft | 441 kts | 231° |
| 2026-05-08 07:52 | 48.50511 | 0.02376 | 35020 ft | 441 kts | 231° |
| 2026-05-08 07:53 | 48.46543 | -0.04654 | 35020 ft | 441 kts | 231° |
| 2026-05-08 07:53 | 48.42566 | -0.11678 | 35020 ft | 441 kts | 231° |
| 2026-05-08 07:54 | 48.38586 | -0.18687 | 35019 ft | 440 kts | 231° |
| 2026-05-08 07:54 | 48.34629 | -0.25637 | 35026 ft | 440 kts | 230° |
| 2026-05-08 07:55 | 48.30612 | -0.32588 | 35021 ft | 440 kts | 230° |
| 2026-05-08 07:55 | 48.26612 | -0.39465 | 35019 ft | 441 kts | 230° |
| 2026-05-08 07:56 | 48.22577 | -0.46395 | 35026 ft | 441 kts | 230° |
| 2026-05-08 07:56 | 48.18546 | -0.53304 | 35027 ft | 441 kts | 230° |
| 2026-05-08 07:57 | 48.14507 | -0.60210 | 35028 ft | 441 kts | 230° |
| 2026-05-08 07:57 | 48.10464 | -0.67106 | 35026 ft | 440 kts | 230° |
| 2026-05-08 07:58 | 48.06418 | -0.73988 | 35027 ft | 440 kts | 230° |
| 2026-05-08 07:58 | 48.02369 | -0.80857 | 35025 ft | 440 kts | 230° |
| 2026-05-08 07:59 | 47.98318 | -0.87713 | 35024 ft | 440 kts | 230° |
| 2026-05-08 07:59 | 47.94265 | -0.94554 | 35022 ft | 440 kts | 230° |
| 2026-05-08 08:00 | 47.90212 | -1.01378 | 35021 ft | 440 kts | 230° |
| 2026-05-08 08:00 | 47.86153 | -1.08195 | 35020 ft | 439 kts | 230° |
| 2026-05-08 08:01 | 47.82092 | -1.14995 | 35027 ft | 439 kts | 229° |
| 2026-05-08 08:01 | 47.78066 | -1.21725 | 35031 ft | 438 kts | 229° |
| 2026-05-08 08:02 | 47.74012 | -1.28481 | 35027 ft | 438 kts | 229° |
| 2026-05-08 08:02 | 47.69953 | -1.35227 | 35024 ft | 437 kts | 229° |
| 2026-05-08 08:03 | 47.65903 | -1.41941 | 35021 ft | 437 kts | 229° |
| 2026-05-08 08:03 | 47.61847 | -1.48649 | 35018 ft | 436 kts | 229° |
| 2026-05-08 08:04 | 47.57794 | -1.55341 | 35016 ft | 436 kts | 229° |
| 2026-05-08 08:04 | 47.53742 | -1.62021 | 35012 ft | 436 kts | 229° |
| 2026-05-08 08:05 | 47.49691 | -1.68683 | 35012 ft | 436 kts | 229° |
| 2026-05-08 08:05 | 47.45633 | -1.75339 | 35012 ft | 436 kts | 229° |
| 2026-05-08 08:06 | 47.41575 | -1.81979 | 34966 ft | 436 kts | 229° |
| 2026-05-08 08:06 | 47.37477 | -1.88646 | 34965 ft | 440 kts | 227° |
| 2026-05-08 08:07 | 47.32874 | -1.94573 | 34966 ft | 440 kts | 217° |
| 2026-05-08 08:07 | 47.27673 | -1.99369 | 34966 ft | 441 kts | 212° |
| 2026-05-08 08:08 | 47.22420 | -2.04046 | 34966 ft | 441 kts | 212° |
| 2026-05-08 08:08 | 47.17203 | -2.08698 | 34967 ft | 442 kts | 212° |
| 2026-05-08 08:09 | 47.11951 | -2.13372 | 34967 ft | 442 kts | 212° |
| 2026-05-08 08:09 | 47.06687 | -2.18045 | 34969 ft | 442 kts | 212° |
| 2026-05-08 08:10 | 47.01427 | -2.22702 | 34969 ft | 442 kts | 212° |
| 2026-05-08 08:10 | 46.96168 | -2.27348 | 34970 ft | 442 kts | 212° |
| 2026-05-08 08:11 | 46.90904 | -2.31987 | 34965 ft | 439 kts | 212° |
| 2026-05-08 08:11 | 46.85733 | -2.36536 | 34967 ft | 433 kts | 212° |
| 2026-05-08 08:12 | 46.80550 | -2.41088 | 34966 ft | 435 kts | 212° |
| 2026-05-08 08:12 | 46.75362 | -2.45637 | 34966 ft | 435 kts | 212° |
| 2026-05-08 08:13 | 46.70214 | -2.50140 | 34966 ft | 435 kts | 212° |
| 2026-05-08 08:13 | 46.65026 | -2.54668 | 34966 ft | 435 kts | 212° |
| 2026-05-08 08:14 | 46.59915 | -2.59118 | 34966 ft | 435 kts | 212° |
| 2026-05-08 08:14 | 46.54646 | -2.63695 | 34965 ft | 435 kts | 212° |
| 2026-05-08 08:15 | 46.49450 | -2.68199 | 34965 ft | 435 kts | 212° |
| 2026-05-08 08:15 | 46.44255 | -2.72692 | 34966 ft | 435 kts | 212° |
| 2026-05-08 08:16 | 46.39062 | -2.77172 | 34964 ft | 435 kts | 212° |
| 2026-05-08 08:16 | 46.33860 | -2.81651 | 34959 ft | 435 kts | 212° |
| 2026-05-08 08:17 | 46.28672 | -2.86109 | 34959 ft | 435 kts | 212° |
| 2026-05-08 08:17 | 46.23808 | -2.91259 | 34957 ft | 433 kts | 221° |
| 2026-05-08 08:18 | 46.19217 | -2.96908 | 34958 ft | 434 kts | 221° |
| 2026-05-08 08:18 | 46.14644 | -3.02500 | 34960 ft | 434 kts | 221° |
| 2026-05-08 08:19 | 46.10031 | -3.08115 | 34963 ft | 434 kts | 221° |
| 2026-05-08 08:19 | 46.05410 | -3.13724 | 34966 ft | 434 kts | 221° |
| 2026-05-08 08:20 | 46.00785 | -3.19326 | 34968 ft | 435 kts | 221° |
| 2026-05-08 08:20 | 45.96220 | -3.24842 | 34969 ft | 435 kts | 221° |
| 2026-05-08 08:21 | 45.91521 | -3.30508 | 34965 ft | 434 kts | 220° |
| 2026-05-08 08:21 | 45.87695 | -3.35112 | 34966 ft | 431 kts | 220° |
| 2026-05-08 08:22 | 45.83085 | -3.40648 | 34966 ft | 432 kts | 220° |
| 2026-05-08 08:22 | 45.78471 | -3.46176 | 34966 ft | 432 kts | 220° |
| 2026-05-08 08:23 | 45.73860 | -3.51688 | 34966 ft | 432 kts | 220° |
| 2026-05-08 08:23 | 45.69239 | -3.57199 | 34966 ft | 432 kts | 220° |
| 2026-05-08 08:24 | 45.64620 | -3.62696 | 34966 ft | 432 kts | 220° |
| 2026-05-08 08:24 | 45.59999 | -3.68183 | 34966 ft | 432 kts | 220° |
| 2026-05-08 08:25 | 45.55374 | -3.73663 | 34966 ft | 432 kts | 220° |
| 2026-05-08 08:25 | 45.50778 | -3.79097 | 34966 ft | 432 kts | 220° |
| 2026-05-08 08:26 | 45.46146 | -3.84560 | 34966 ft | 432 kts | 220° |
| 2026-05-08 08:26 | 45.41514 | -3.90013 | 34966 ft | 432 kts | 220° |
| 2026-05-08 08:27 | 45.36876 | -3.95460 | 34966 ft | 432 kts | 220° |
| 2026-05-08 08:27 | 45.32241 | -4.00891 | 34966 ft | 432 kts | 220° |
| 2026-05-08 08:28 | 45.27600 | -4.06318 | 34967 ft | 432 kts | 220° |
| 2026-05-08 08:28 | 45.22955 | -4.11738 | 34966 ft | 432 kts | 220° |
| 2026-05-08 08:29 | 45.18303 | -4.17154 | 34967 ft | 432 kts | 220° |
| 2026-05-08 08:29 | 45.13687 | -4.22515 | 34966 ft | 432 kts | 220° |
| 2026-05-08 08:30 | 45.09033 | -4.27910 | 34967 ft | 432 kts | 220° |
| 2026-05-08 08:30 | 45.02052 | -4.35981 | 34967 ft | 432 kts | 220° |
| 2026-05-08 08:31 | 44.97409 | -4.41337 | 34856 ft | 430 kts | 219° |
| 2026-05-08 08:31 | 44.92743 | -4.46703 | 34856 ft | 433 kts | 219° |
| 2026-05-08 08:32 | 44.88074 | -4.52062 | 34856 ft | 433 kts | 219° |
| 2026-05-08 08:32 | 44.83403 | -4.57412 | 34856 ft | 433 kts | 219° |
| 2026-05-08 08:33 | 44.78729 | -4.62754 | 34856 ft | 433 kts | 219° |
| 2026-05-08 08:33 | 44.74054 | -4.68086 | 34856 ft | 433 kts | 219° |
| 2026-05-08 08:34 | 44.69408 | -4.73374 | 34856 ft | 433 kts | 219° |
| 2026-05-08 08:34 | 44.64728 | -4.78689 | 34856 ft | 433 kts | 219° |
| 2026-05-08 08:35 | 44.60044 | -4.83996 | 34856 ft | 433 kts | 219° |
| 2026-05-08 08:35 | 44.55357 | -4.89297 | 34856 ft | 433 kts | 219° |
| 2026-05-08 08:36 | 44.50712 | -4.94523 | 34855 ft | 418 kts | 218° |
| 2026-05-08 08:36 | 44.46048 | -4.99232 | 34857 ft | 422 kts | 217° |
| 2026-05-08 08:37 | 44.41224 | -5.04093 | 34856 ft | 421 kts | 217° |
| 2026-05-08 08:37 | 44.36496 | -5.08847 | 34856 ft | 422 kts | 217° |
| 2026-05-08 08:38 | 44.31734 | -5.13619 | 34856 ft | 422 kts | 217° |
| 2026-05-08 08:38 | 44.26966 | -5.18384 | 34856 ft | 422 kts | 217° |
| 2026-05-08 08:39 | 44.22189 | -5.23146 | 34856 ft | 422 kts | 217° |
| 2026-05-08 08:39 | 44.17417 | -5.27895 | 34856 ft | 422 kts | 217° |
| 2026-05-08 08:40 | 44.12646 | -5.32633 | 34857 ft | 422 kts | 216° |
| 2026-05-08 08:40 | 44.07866 | -5.37370 | 34857 ft | 422 kts | 216° |
| 2026-05-08 08:41 | 44.03087 | -5.42100 | 34839 ft | 422 kts | 216° |
| 2026-05-08 08:41 | 43.98293 | -5.46831 | 34843 ft | 423 kts | 216° |
| 2026-05-08 08:42 | 43.93489 | -5.51561 | 34847 ft | 423 kts | 216° |
| 2026-05-08 08:42 | 43.88677 | -5.56291 | 34852 ft | 424 kts | 216° |
| 2026-05-08 08:43 | 43.83862 | -5.61015 | 34856 ft | 425 kts | 216° |
| 2026-05-08 08:43 | 43.79064 | -5.65713 | 34860 ft | 425 kts | 216° |
| 2026-05-08 08:44 | 43.74469 | -5.70204 | 34864 ft | 426 kts | 216° |
| 2026-05-08 08:44 | 43.69915 | -5.74645 | 34866 ft | 426 kts | 215° |
| 2026-05-08 08:45 | 43.65070 | -5.79361 | 34867 ft | 426 kts | 215° |
| 2026-05-08 08:45 | 43.60224 | -5.84069 | 34866 ft | 426 kts | 215° |
| 2026-05-08 08:46 | 43.55400 | -5.88752 | 34856 ft | 421 kts | 214° |
| 2026-05-08 08:46 | 43.50602 | -5.93396 | 34857 ft | 424 kts | 214° |
| 2026-05-08 08:47 | 43.46064 | -5.97777 | 34857 ft | 426 kts | 214° |
| 2026-05-08 08:47 | 43.41151 | -6.02513 | 34857 ft | 425 kts | 214° |
| 2026-05-08 08:48 | 43.36328 | -6.07152 | 34854 ft | 423 kts | 214° |
| 2026-05-08 08:48 | 43.31564 | -6.11724 | 34844 ft | 423 kts | 214° |
| 2026-05-08 08:49 | 43.26735 | -6.16352 | 34856 ft | 426 kts | 214° |
| 2026-05-08 08:49 | 43.21843 | -6.21030 | 34859 ft | 430 kts | 214° |
| 2026-05-08 08:50 | 43.16983 | -6.25668 | 34857 ft | 429 kts | 214° |
| 2026-05-08 08:50 | 43.12087 | -6.30331 | 34856 ft | 431 kts | 214° |
| 2026-05-08 08:51 | 43.07215 | -6.34969 | 34852 ft | 419 kts | 213° |
| 2026-05-08 08:51 | 43.02370 | -6.39562 | 34817 ft | 428 kts | 212° |
| 2026-05-08 08:52 | 42.99920 | -6.41881 | 34595 ft | 428 kts | 212° |
| 2026-05-08 08:52 | 42.97478 | -6.44193 | 34346 ft | 427 kts | 212° |
| 2026-05-08 08:52 | 42.95039 | -6.46499 | 34099 ft | 425 kts | 212° |
| 2026-05-08 08:52 | 42.92606 | -6.48798 | 33848 ft | 428 kts | 212° |
| 2026-05-08 08:53 | 42.90150 | -6.51115 | 33600 ft | 429 kts | 212° |
| 2026-05-08 08:53 | 42.87698 | -6.53427 | 33349 ft | 428 kts | 212° |
| 2026-05-08 08:53 | 42.85258 | -6.55725 | 33104 ft | 428 kts | 212° |
| 2026-05-08 08:53 | 42.82799 | -6.58039 | 32849 ft | 426 kts | 212° |
| 2026-05-08 08:54 | 42.80355 | -6.60336 | 32603 ft | 427 kts | 212° |
| 2026-05-08 08:54 | 42.77910 | -6.62632 | 32346 ft | 427 kts | 212° |
| 2026-05-08 08:54 | 42.75463 | -6.64927 | 32108 ft | 428 kts | 212° |
| 2026-05-08 08:54 | 42.73014 | -6.67222 | 31863 ft | 428 kts | 212° |
| 2026-05-08 08:55 | 42.70556 | -6.69523 | 31603 ft | 429 kts | 212° |
| 2026-05-08 08:55 | 42.68100 | -6.71819 | 31353 ft | 429 kts | 212° |
| 2026-05-08 08:55 | 42.65656 | -6.74103 | 31106 ft | 430 kts | 212° |
| 2026-05-08 08:55 | 42.63181 | -6.76413 | 30859 ft | 432 kts | 212° |
| 2026-05-08 08:56 | 42.60711 | -6.78720 | 30600 ft | 427 kts | 212° |
| 2026-05-08 08:56 | 42.58288 | -6.80982 | 30359 ft | 419 kts | 211° |
| 2026-05-08 08:56 | 42.55886 | -6.83218 | 30115 ft | 419 kts | 211° |
| 2026-05-08 08:56 | 42.53466 | -6.85464 | 29862 ft | 423 kts | 211° |
| 2026-05-08 08:57 | 42.51042 | -6.87714 | 29611 ft | 420 kts | 211° |
| 2026-05-08 08:57 | 42.48642 | -6.89942 | 29363 ft | 418 kts | 211° |
| 2026-05-08 08:57 | 42.46249 | -6.92161 | 29112 ft | 416 kts | 211° |
| 2026-05-08 08:57 | 42.43866 | -6.94369 | 28861 ft | 414 kts | 211° |
| 2026-05-08 08:58 | 42.41500 | -6.96558 | 28613 ft | 412 kts | 211° |
| 2026-05-08 08:58 | 42.39139 | -6.98740 | 28360 ft | 411 kts | 211° |
| 2026-05-08 08:58 | 42.36769 | -7.00927 | 28113 ft | 413 kts | 211° |
| 2026-05-08 08:58 | 42.34395 | -7.03118 | 27862 ft | 414 kts | 211° |
| 2026-05-08 08:59 | 42.32030 | -7.05301 | 27611 ft | 409 kts | 211° |
| 2026-05-08 08:59 | 42.29730 | -7.07547 | 27355 ft | 408 kts | 216° |
| 2026-05-08 08:59 | 42.27677 | -7.10140 | 27108 ft | 411 kts | 224° |
| 2026-05-08 08:59 | 42.25869 | -7.13132 | 26863 ft | 414 kts | 231° |
| 2026-05-08 09:00 | 42.24317 | -7.16417 | 26616 ft | 415 kts | 234° |
| 2026-05-08 09:00 | 42.22820 | -7.19704 | 26363 ft | 413 kts | 234° |
| 2026-05-08 09:00 | 42.21307 | -7.23005 | 26114 ft | 413 kts | 234° |
| 2026-05-08 09:00 | 42.19789 | -7.26300 | 25864 ft | 413 kts | 234° |
| 2026-05-08 09:01 | 42.18272 | -7.29585 | 25610 ft | 413 kts | 234° |
| 2026-05-08 09:01 | 42.16749 | -7.32875 | 25352 ft | 415 kts | 234° |
| 2026-05-08 09:01 | 42.15229 | -7.36159 | 25114 ft | 412 kts | 234° |
| 2026-05-08 09:01 | 42.13714 | -7.39430 | 24867 ft | 410 kts | 234° |
| 2026-05-08 09:02 | 42.12205 | -7.42684 | 24617 ft | 409 kts | 234° |
| 2026-05-08 09:02 | 42.10701 | -7.45922 | 24369 ft | 406 kts | 234° |
| 2026-05-08 09:02 | 42.09212 | -7.49128 | 24119 ft | 402 kts | 234° |
| 2026-05-08 09:02 | 42.07729 | -7.52316 | 23866 ft | 400 kts | 234° |
| 2026-05-08 09:03 | 42.06250 | -7.55490 | 23567 ft | 401 kts | 234° |
| 2026-05-08 09:03 | 42.04763 | -7.58676 | 23039 ft | 402 kts | 234° |
| 2026-05-08 09:03 | 42.03281 | -7.61852 | 22488 ft | 399 kts | 234° |
| 2026-05-08 09:03 | 42.01813 | -7.64995 | 21951 ft | 395 kts | 234° |
| 2026-05-08 09:04 | 42.00360 | -7.68104 | 21406 ft | 391 kts | 234° |
| 2026-05-08 09:04 | 41.98920 | -7.71179 | 20885 ft | 386 kts | 234° |
| 2026-05-08 09:04 | 41.97498 | -7.74214 | 20351 ft | 382 kts | 234° |
| 2026-05-08 09:04 | 41.96088 | -7.77217 | 19831 ft | 378 kts | 234° |
| 2026-05-08 09:05 | 41.94695 | -7.80184 | 19311 ft | 374 kts | 234° |
| 2026-05-08 09:05 | 41.93313 | -7.83123 | 18793 ft | 371 kts | 234° |
| 2026-05-08 09:05 | 41.91953 | -7.86014 | 18272 ft | 367 kts | 234° |
| 2026-05-08 09:05 | 41.90591 | -7.88906 | 17779 ft | 364 kts | 234° |
| 2026-05-08 09:06 | 41.89248 | -7.91758 | 17260 ft | 360 kts | 234° |
| 2026-05-08 09:06 | 41.87915 | -7.94586 | 16760 ft | 356 kts | 234° |
| 2026-05-08 09:06 | 41.86596 | -7.97380 | 16256 ft | 353 kts | 233° |
| 2026-05-08 09:06 | 41.85301 | -8.00116 | 15765 ft | 351 kts | 233° |
| 2026-05-08 09:07 | 41.84002 | -8.02861 | 15273 ft | 347 kts | 233° |
| 2026-05-08 09:07 | 41.82715 | -8.05579 | 14791 ft | 343 kts | 233° |
| 2026-05-08 09:07 | 41.81446 | -8.08258 | 14302 ft | 337 kts | 233° |
| 2026-05-08 09:07 | 41.80227 | -8.10928 | 13815 ft | 335 kts | 235° |
| 2026-05-08 09:08 | 41.79060 | -8.13617 | 13352 ft | 332 kts | 236° |
| 2026-05-08 09:08 | 41.77934 | -8.16237 | 12902 ft | 328 kts | 236° |
| 2026-05-08 09:08 | 41.76801 | -8.18864 | 12444 ft | 324 kts | 235° |
| 2026-05-08 09:08 | 41.75673 | -8.21457 | 11975 ft | 321 kts | 235° |
| 2026-05-08 09:09 | 41.74550 | -8.24022 | 11537 ft | 318 kts | 235° |
| 2026-05-08 09:09 | 41.73450 | -8.26587 | 11082 ft | 317 kts | 236° |
| 2026-05-08 09:09 | 41.72377 | -8.29147 | 10638 ft | 315 kts | 236° |
| 2026-05-08 09:09 | 41.71313 | -8.31695 | 10243 ft | 311 kts | 236° |
| 2026-05-08 09:10 | 41.70281 | -8.34166 | 10114 ft | 298 kts | 236° |
| 2026-05-08 09:10 | 41.69286 | -8.36539 | 9908 ft | 289 kts | 236° |
| 2026-05-08 09:10 | 41.68305 | -8.38862 | 9617 ft | 283 kts | 236° |
| 2026-05-08 09:10 | 41.67350 | -8.41121 | 9500 ft | 279 kts | 235° |
| 2026-05-08 09:11 | 41.66389 | -8.43386 | 9342 ft | 280 kts | 235° |
| 2026-05-08 09:11 | 41.65427 | -8.45647 | 8991 ft | 280 kts | 236° |
| 2026-05-08 09:11 | 41.64464 | -8.47909 | 8632 ft | 279 kts | 236° |
| 2026-05-08 09:11 | 41.63512 | -8.50150 | 8276 ft | 276 kts | 236° |
| 2026-05-08 09:12 | 41.62570 | -8.52371 | 7918 ft | 273 kts | 237° |
| 2026-05-08 09:12 | 41.61637 | -8.54566 | 7565 ft | 270 kts | 237° |
| 2026-05-08 09:12 | 41.60712 | -8.56740 | 7217 ft | 267 kts | 237° |
| 2026-05-08 09:12 | 41.59798 | -8.58881 | 6954 ft | 262 kts | 236° |
| 2026-05-08 09:13 | 41.58803 | -8.60936 | 6775 ft | 266 kts | 234° |
| 2026-05-08 09:13 | 41.57795 | -8.63004 | 6605 ft | 265 kts | 234° |
| 2026-05-08 09:13 | 41.56794 | -8.65066 | 6424 ft | 264 kts | 234° |
| 2026-05-08 09:13 | 41.55794 | -8.67126 | 6254 ft | 265 kts | 234° |
| 2026-05-08 09:14 | 41.54794 | -8.69186 | 6077 ft | 264 kts | 234° |
| 2026-05-08 09:14 | 41.53796 | -8.71239 | 5903 ft | 263 kts | 234° |
| 2026-05-08 09:14 | 41.52770 | -8.73253 | 5718 ft | 260 kts | 226° |
| 2026-05-08 09:14 | 41.51864 | -8.74258 | 5610 ft | 252 kts | 208° |
| 2026-05-08 09:15 | 41.50228 | -8.74852 | 5426 ft | 242 kts | 179° |
| 2026-05-08 09:15 | 41.48595 | -8.74493 | 5238 ft | 235 kts | 167° |
| 2026-05-08 09:15 | 41.46934 | -8.73966 | 4090 ft | 259 kts | 168° |
| 2026-05-08 09:15 | 41.45225 | -8.73541 | 3620 ft | 234 kts | 170° |
| 2026-05-08 09:16 | 41.43730 | -8.73149 | 3379 ft | 204 kts | 168° |
| 2026-05-08 09:16 | 41.42431 | -8.72780 | 3112 ft | 180 kts | 167° |
| 2026-05-08 09:16 | 41.41270 | -8.72463 | 2911 ft | 159 kts | 168° |
| 2026-05-08 09:16 | 41.40243 | -8.72191 | 2717 ft | 142 kts | 168° |
| 2026-05-08 09:17 | 41.39309 | -8.71944 | 2549 ft | 137 kts | 169° |
| 2026-05-08 09:17 | 41.38358 | -8.71693 | 2381 ft | 138 kts | 169° |
| 2026-05-08 09:17 | 41.37463 | -8.71457 | 2221 ft | 127 kts | 167° |
| 2026-05-08 09:17 | 41.36580 | -8.71224 | 2070 ft | 130 kts | 168° |
| 2026-05-08 09:18 | 41.35698 | -8.70991 | 1904 ft | 129 kts | 168° |
| 2026-05-08 09:18 | 41.34819 | -8.70759 | 1762 ft | 129 kts | 167° |
| 2026-05-08 09:18 | 41.33937 | -8.70527 | 1607 ft | 129 kts | 167° |
| 2026-05-08 09:18 | 41.33057 | -8.70295 | 1453 ft | 129 kts | 167° |
| 2026-05-08 09:19 | 41.32181 | -8.70064 | 1300 ft | 129 kts | 167° |
| 2026-05-08 09:19 | 41.31303 | -8.69833 | 1146 ft | 128 kts | 167° |
| 2026-05-08 09:19 | 41.30448 | -8.69608 | 998 ft | 128 kts | 168° |
| 2026-05-08 09:19 | 41.29577 | -8.69378 | 835 ft | 128 kts | 167° |
| 2026-05-08 09:20 | 41.28694 | -8.69146 | 684 ft | 128 kts | 167° |
| 2026-05-08 09:20 | 41.27823 | -8.68917 | 533 ft | 127 kts | 168° |
| 2026-05-08 09:20 | 41.26957 | -8.68689 | 385 ft | 129 kts | 168° |
| 2026-05-08 09:20 | 41.26078 | -8.68458 | 230 ft | 129 kts | 168° |
| 2026-05-08 09:21 | 41.25222 | -8.68228 | 181 ft | 107 kts | 168° |
| 2026-05-08 09:21 | 41.24790 | -8.68104 | 202 ft | 25 kts | 168° |
| 2026-05-08 09:22 | 41.23923 | -8.67592 | 224 ft | 14 kts | 85° |
| 2026-05-08 09:23 | 41.23887 | -8.67498 | 225 ft | 11 kts | 146° |
| 2026-05-08 09:23 | 41.23858 | -8.67483 | 226 ft | 0 kts | 166° |
| 2026-05-08 09:26 | 41.23857 | -8.67482 | 226 ft | 0 kts | 166° |
| 2026-05-08 09:26 | 41.23856 | -8.67482 | 226 ft | 1 kts | 166° |
| 2026-05-08 09:27 | 41.23800 | -8.67464 | 227 ft | 17 kts | 166° |
| 2026-05-08 09:27 | 41.23670 | -8.67430 | 228 ft | 19 kts | 169° |
| 2026-05-08 09:27 | 41.23548 | -8.67397 | 235 ft | 17 kts | 168° |
| 2026-05-08 09:27 | 41.23452 | -8.67376 | 238 ft | 11 kts | 168° |
| 2026-05-08 09:28 | 41.23388 | -8.67267 | 240 ft | 14 kts | 70° |
| 2026-05-08 09:28 | 41.23368 | -8.67222 | 241 ft | 10 kts | 218° |
| 2026-05-08 09:28 | 41.23366 | -8.67271 | 240 ft | 10 kts | 272° |
| 2026-05-08 09:28 | 41.23391 | -8.67328 | 238 ft | 3 kts | 347° |
| 2026-05-08 09:29 | 41.23425 | -8.67304 | 239 ft | 6 kts | 51° |
| 2026-05-08 09:29 | 41.23440 | -8.67268 | 239 ft | 2 kts | 65° |
| 2026-05-08 09:29 | 41.23441 | -8.67266 | 239 ft | 0 kts | 63° |